Time;durP1;ratioP1;P1;durP2;ratioP2;P2;SDS_P1;SDS_P2;PMS_P1;PMS_P2;Temp;Humidity;BMP_temperature;BMP_pressure;BME280_temperature;BME280_humidity;BME280_pressure;Samples;Min_cycle;Max_cycle;Signal;HPM_P1;HPM_P2
2023/01/31 00:01:22;;;;;;;6.00;2.77;;;3.00;99.90;;;;;;5012594;28;20184;-85
2023/01/31 00:03:55;;;;;;;10.83;3.40;;;3.00;99.90;;;;;;5013441;28;20211;-85
2023/01/31 00:06:28;;;;;;;12.00;3.40;;;3.00;99.90;;;;;;5013295;28;20208;-85
2023/01/31 00:08:54;;;;;;;12.37;3.33;;;3.00;99.90;;;;;;5013029;28;20195;-87
2023/01/31 00:11:23;;;;;;;7.97;3.37;;;3.00;99.90;;;;;;5012855;28;20182;-86
2023/01/31 00:13:49;;;;;;;8.23;3.40;;;3.00;99.90;;;;;;5014483;28;20230;-86
2023/01/31 00:16:16;;;;;;;6.57;3.03;;;3.00;99.90;;;;;;5012831;28;20577;-85
2023/01/31 00:18:42;;;;;;;9.27;3.57;;;3.00;99.90;;;;;;5013030;28;20211;-86
2023/01/31 00:21:10;;;;;;;10.27;3.20;;;3.00;99.90;;;;;;5012229;28;20216;-86
2023/01/31 00:23:37;;;;;;;7.53;2.97;;;3.00;99.90;;;;;;5012847;28;20180;-86
2023/01/31 00:26:14;;;;;;;9.57;3.13;;;3.00;99.90;;;;;;5012714;28;20266;-85
2023/01/31 00:28:41;;;;;;;6.70;2.73;;;3.00;99.90;;;;;;5013000;28;20571;-86
2023/01/31 00:31:07;;;;;;;10.90;2.97;;;3.00;99.90;;;;;;5012203;28;20647;-86
2023/01/31 00:33:34;;;;;;;8.20;2.87;;;3.00;99.90;;;;;;5012645;28;20215;-86
2023/01/31 00:36:05;;;;;;;8.23;3.33;;;3.00;99.90;;;;;;5012408;28;20198;-85
2023/01/31 00:38:31;;;;;;;10.60;2.90;;;3.00;99.90;;;;;;5013983;28;20566;-85
2023/01/31 00:40:56;;;;;;;8.73;2.83;;;3.10;99.90;;;;;;5013433;28;20187;-85
2023/01/31 00:43:22;;;;;;;9.43;3.00;;;3.10;99.90;;;;;;5014179;28;20185;-86
2023/01/31 00:45:47;;;;;;;10.60;2.90;;;3.10;99.90;;;;;;5012467;28;20227;-85
2023/01/31 00:48:13;;;;;;;10.53;2.60;;;3.10;99.90;;;;;;5012253;28;20195;-86
2023/01/31 00:50:38;;;;;;;11.40;2.87;;;3.10;99.90;;;;;;5011782;28;20176;-86
2023/01/31 00:53:05;;;;;;;9.80;3.17;;;3.10;99.90;;;;;;5013178;28;20171;-85
2023/01/31 00:55:30;;;;;;;9.90;2.90;;;3.10;99.90;;;;;;5012269;28;20200;-86
2023/01/31 00:57:56;;;;;;;6.30;2.83;;;3.10;99.90;;;;;;5013987;28;20291;-85
2023/01/31 01:00:21;;;;;;;11.73;3.30;;;3.10;99.90;;;;;;5011712;28;20184;-85
2023/01/31 01:02:47;;;;;;;10.07;2.87;;;3.00;99.90;;;;;;5012078;28;20185;-85
2023/01/31 01:05:13;;;;;;;8.37;3.27;;;3.10;99.90;;;;;;5011944;28;20200;-85
2023/01/31 01:07:38;;;;;;;7.57;2.60;;;3.10;99.90;;;;;;5011942;28;20209;-85
2023/01/31 01:10:05;;;;;;;8.23;2.93;;;3.10;99.90;;;;;;5011817;28;20181;-86
2023/01/31 01:12:31;;;;;;;6.73;2.60;;;3.10;99.90;;;;;;5011824;28;20181;-85
2023/01/31 01:14:56;;;;;;;10.13;3.30;;;3.20;99.90;;;;;;5011853;28;20197;-85
2023/01/31 01:17:22;;;;;;;8.53;3.13;;;3.10;99.90;;;;;;5013044;28;20185;-85
2023/01/31 01:19:48;;;;;;;13.10;3.23;;;3.20;99.90;;;;;;5011298;28;20204;-85
2023/01/31 01:22:15;;;;;;;11.03;2.83;;;3.20;99.90;;;;;;5011994;28;20182;-85
2023/01/31 01:24:41;;;;;;;9.83;2.80;;;3.20;99.90;;;;;;5012927;28;20535;-86
2023/01/31 01:27:07;;;;;;;7.70;2.83;;;3.20;99.90;;;;;;5013325;28;20180;-85
2023/01/31 01:29:33;;;;;;;9.00;3.33;;;3.20;99.90;;;;;;5011514;28;20252;-85
2023/01/31 01:31:59;;;;;;;7.70;2.70;;;3.10;99.90;;;;;;5012633;28;20172;-85
2023/01/31 01:34:25;;;;;;;7.10;2.70;;;3.20;99.90;;;;;;5011467;28;20263;-85
2023/01/31 01:36:51;;;;;;;7.73;2.73;;;3.20;99.90;;;;;;5011440;28;20192;-86
2023/01/31 01:39:17;;;;;;;9.77;3.43;;;3.20;99.90;;;;;;5011499;28;20242;-85
2023/01/31 01:41:43;;;;;;;7.63;3.17;;;3.20;99.90;;;;;;5011083;28;20182;-85
2023/01/31 01:44:46;;;;;;;10.57;2.93;;;3.20;99.90;;;;;;5010287;28;20187;-85
2023/01/31 01:47:20;;;;;;;5.27;2.20;;;3.30;99.90;;;;;;5011450;28;20188;-85
2023/01/31 01:49:52;;;;;;;7.53;2.63;;;3.30;99.90;;;;;;5012262;28;20181;-85
2023/01/31 01:52:19;;;;;;;10.13;3.47;;;3.30;99.90;;;;;;5011271;28;20273;-87
2023/01/31 01:55:03;;;;;;;9.07;2.97;;;3.20;99.90;;;;;;5011350;28;20319;-85
2023/01/31 01:57:34;;;;;;;7.67;3.10;;;3.20;99.90;;;;;;5011502;28;20189;-85
2023/01/31 02:00:04;;;;;;;10.97;3.13;;;3.20;99.90;;;;;;5012049;28;20325;-86
2023/01/31 02:02:30;;;;;;;9.60;3.23;;;3.10;99.90;;;;;;5012982;28;20634;-86
2023/01/31 02:04:56;;;;;;;11.87;3.60;;;3.10;99.90;;;;;;5010073;28;20208;-85
2023/01/31 02:07:22;;;;;;;7.77;3.03;;;3.10;99.90;;;;;;5011394;28;20180;-85
2023/01/31 02:09:59;;;;;;;14.33;2.93;;;3.00;99.90;;;;;;5010885;28;20177;-85
2023/01/31 02:12:25;;;;;;;7.50;2.80;;;3.10;99.90;;;;;;5011352;28;20173;-85
2023/01/31 02:14:52;;;;;;;13.47;3.30;;;3.10;99.90;;;;;;5011129;28;20181;-85
2023/01/31 02:17:19;;;;;;;6.63;2.50;;;3.10;99.90;;;;;;5011119;28;20645;-85
2023/01/31 02:20:10;;;;;;;9.00;2.77;;;3.10;99.90;;;;;;5010502;28;20173;-85
2023/01/31 02:22:41;;;;;;;5.80;2.67;;;3.10;99.90;;;;;;5010964;28;20175;-85
2023/01/31 02:25:07;;;;;;;6.60;3.10;;;3.10;99.90;;;;;;5011141;28;20189;-85
2023/01/31 02:28:08;;;;;;;5.67;2.90;;;3.10;99.90;;;;;;5010875;28;20195;-85
2023/01/31 02:31:06;;;;;;;8.57;3.20;;;3.10;99.90;;;;;;5010526;28;20679;-85
2023/01/31 02:33:40;;;;;;;8.47;2.60;;;3.10;99.90;;;;;;5011043;28;20174;-85
2023/01/31 02:36:31;;;;;;;12.20;3.13;;;3.10;99.90;;;;;;5012096;28;20270;-85
2023/01/31 02:39:08;;;;;;;9.23;3.13;;;3.00;99.90;;;;;;5011122;28;20178;-85
2023/01/31 02:41:43;;;;;;;9.33;3.03;;;3.00;99.90;;;;;;5011901;28;20173;-85
2023/01/31 02:48:07;;;;;;;10.70;3.10;;;3.00;99.90;;;;;;4971184;28;20656;-85
2023/01/31 02:50:33;;;;;;;11.30;3.30;;;3.00;99.90;;;;;;5009993;28;20180;-84
2023/01/31 02:53:09;;;;;;;8.27;2.60;;;3.10;99.90;;;;;;5010735;28;20179;-85
2023/01/31 02:58:25;;;;;;;5.97;2.40;;;3.10;99.90;;;;;;5012038;28;20186;-85
2023/01/31 03:00:56;;;;;;;8.90;2.77;;;3.00;99.90;;;;;;5011404;28;20629;-84
2023/01/31 03:03:26;;;;;;;6.70;2.40;;;3.10;99.90;;;;;;5012262;28;20174;-85
2023/01/31 03:06:21;;;;;;;5.90;2.63;;;3.10;99.90;;;;;;5012075;28;20211;-85
2023/01/31 03:09:10;;;;;;;9.67;2.87;;;3.00;99.90;;;;;;5010878;28;20204;-85
2023/01/31 03:11:44;;;;;;;7.13;2.60;;;3.00;99.90;;;;;;5010085;28;20200;-85
2023/01/31 03:14:23;;;;;;;8.70;2.97;;;3.00;99.90;;;;;;5011931;28;20175;-85
2023/01/31 03:19:51;;;;;;;9.73;3.10;;;3.00;99.90;;;;;;5015046;28;20670;-84
2023/01/31 03:22:27;;;;;;;5.00;2.43;;;3.00;99.90;;;;;;5013968;28;20654;-85
2023/01/31 03:24:53;;;;;;;8.20;2.83;;;3.00;99.90;;;;;;5015570;28;20214;-85
2023/01/31 03:27:20;;;;;;;10.50;3.03;;;2.90;99.90;;;;;;5015350;28;20202;-85
2023/01/31 03:29:46;;;;;;;8.27;2.87;;;2.90;99.90;;;;;;5014675;28;20174;-85
2023/01/31 03:32:22;;;;;;;7.40;3.07;;;2.90;99.90;;;;;;5014968;28;20647;-85
2023/01/31 03:34:48;;;;;;;8.27;3.10;;;2.80;99.90;;;;;;5015177;28;20183;-85
2023/01/31 03:37:38;;;;;;;7.80;3.07;;;2.90;99.90;;;;;;5013791;28;20224;-85
2023/01/31 03:40:11;;;;;;;6.80;2.43;;;2.90;99.90;;;;;;5013114;28;20175;-85
2023/01/31 03:43:10;;;;;;;7.30;2.80;;;2.90;99.90;;;;;;5013258;28;20173;-85
2023/01/31 03:46:11;;;;;;;7.43;3.17;;;2.80;99.90;;;;;;5014778;28;20687;-85
2023/01/31 03:48:42;;;;;;;5.73;2.40;;;2.80;99.90;;;;;;4970415;28;20221;-85
2023/01/31 03:51:11;;;;;;;7.97;3.13;;;2.70;99.90;;;;;;5013082;28;20177;-85
2023/01/31 03:53:42;;;;;;;5.50;2.87;;;2.70;99.90;;;;;;5015056;28;20177;-85
2023/01/31 03:56:40;;;;;;;6.33;2.60;;;2.70;99.90;;;;;;5013215;28;20206;-85
2023/01/31 03:59:11;;;;;;;11.13;3.30;;;2.70;99.90;;;;;;5007964;28;20176;-85
2023/01/31 04:01:41;;;;;;;5.80;2.70;;;2.70;99.90;;;;;;5012810;28;20175;-84
2023/01/31 04:04:11;;;;;;;8.57;3.00;;;2.70;99.90;;;;;;5013142;28;20207;-85
2023/01/31 04:06:37;;;;;;;7.77;2.53;;;2.70;99.90;;;;;;5014580;28;20611;-84
2023/01/31 04:09:03;;;;;;;8.53;2.77;;;2.70;99.90;;;;;;5013411;28;20252;-84
2023/01/31 04:11:34;;;;;;;6.50;2.60;;;2.70;99.90;;;;;;5013671;28;20169;-85
2023/01/31 04:14:00;;;;;;;4.80;2.43;;;2.70;99.90;;;;;;5012964;28;20170;-85
2023/01/31 04:16:25;;;;;;;6.87;3.00;;;2.60;99.90;;;;;;5012769;28;20290;-85
2023/01/31 04:18:51;;;;;;;4.83;3.00;;;2.60;99.90;;;;;;5013227;28;20186;-85
2023/01/31 04:21:16;;;;;;;6.77;3.13;;;2.60;99.90;;;;;;5013844;28;20228;-85
2023/01/31 04:23:42;;;;;;;9.10;3.40;;;2.60;99.90;;;;;;5014093;28;20191;-85
2023/01/31 04:26:07;;;;;;;9.03;3.27;;;2.50;99.90;;;;;;5012692;28;20228;-85
2023/01/31 04:28:33;;;;;;;6.33;2.70;;;2.40;99.90;;;;;;5011749;28;20628;-85
2023/01/31 04:30:59;;;;;;;7.73;2.90;;;2.30;99.90;;;;;;5012076;28;20206;-85
2023/01/31 04:33:24;;;;;;;8.43;2.87;;;2.30;99.90;;;;;;5014132;28;20178;-84
2023/01/31 04:35:50;;;;;;;6.83;3.13;;;2.20;99.90;;;;;;5012770;28;20192;-85
2023/01/31 04:38:16;;;;;;;5.80;2.90;;;2.20;99.90;;;;;;5012629;28;20668;-85
2023/01/31 04:40:41;;;;;;;6.13;2.70;;;2.30;99.90;;;;;;5013175;28;20185;-85
2023/01/31 04:43:07;;;;;;;12.00;3.03;;;2.30;99.90;;;;;;5013710;28;20181;-85
2023/01/31 04:45:33;;;;;;;7.00;2.77;;;2.20;99.90;;;;;;5012107;28;20658;-85
2023/01/31 04:47:58;;;;;;;7.83;2.73;;;2.20;99.90;;;;;;5012250;28;20257;-85
2023/01/31 04:50:24;;;;;;;8.03;3.20;;;2.20;99.90;;;;;;5011818;28;20663;-85
2023/01/31 04:52:50;;;;;;;8.13;2.87;;;2.20;99.90;;;;;;5014151;28;20188;-85
2023/01/31 04:55:16;;;;;;;9.70;3.60;;;2.10;99.90;;;;;;5013543;28;20676;-85
2023/01/31 04:57:42;;;;;;;10.00;3.33;;;2.10;99.90;;;;;;5012205;28;20174;-85
2023/01/31 05:00:08;;;;;;;8.47;3.53;;;2.10;99.90;;;;;;5012993;28;20184;-85
2023/01/31 05:02:34;;;;;;;8.63;3.63;;;2.10;99.90;;;;;;5011907;28;20175;-85
2023/01/31 05:05:00;;;;;;;8.80;3.17;;;2.00;99.90;;;;;;5013247;28;20248;-85
2023/01/31 05:07:26;;;;;;;6.33;2.87;;;2.10;99.90;;;;;;5011884;28;20178;-85
2023/01/31 05:09:51;;;;;;;6.90;2.67;;;2.10;99.90;;;;;;5011642;28;20242;-85
2023/01/31 05:12:17;;;;;;;3.60;2.07;;;2.10;99.90;;;;;;5012234;28;20174;-85
2023/01/31 05:14:42;;;;;;;5.70;2.50;;;2.00;99.90;;;;;;5011745;28;20184;-85
2023/01/31 05:17:08;;;;;;;5.30;2.40;;;2.00;99.90;;;;;;5013287;28;20181;-85
2023/01/31 05:19:34;;;;;;;5.90;2.50;;;2.00;99.90;;;;;;5011774;28;20270;-85
2023/01/31 05:22:00;;;;;;;6.67;2.63;;;2.00;99.90;;;;;;5011372;28;20172;-85
2023/01/31 05:24:28;;;;;;;5.13;2.40;;;2.10;99.90;;;;;;5013182;28;20184;-85
2023/01/31 05:26:57;;;;;;;7.53;2.80;;;2.10;99.90;;;;;;5012916;28;20228;-85
2023/01/31 05:29:27;;;;;;;5.67;2.47;;;2.10;99.90;;;;;;5012763;28;20202;-85
2023/01/31 05:31:54;;;;;;;7.87;3.03;;;2.10;99.90;;;;;;5012507;28;20202;-85
2023/01/31 05:34:20;;;;;;;6.70;2.50;;;2.00;99.90;;;;;;5011462;28;20172;-85
2023/01/31 05:36:46;;;;;;;8.33;2.57;;;2.00;99.90;;;;;;5011685;28;20242;-85
2023/01/31 05:39:11;;;;;;;10.13;2.70;;;2.00;99.90;;;;;;5011299;28;20186;-84
2023/01/31 05:41:37;;;;;;;7.60;3.20;;;2.00;99.90;;;;;;5012647;28;20174;-85
2023/01/31 05:44:03;;;;;;;5.50;2.70;;;2.00;99.90;;;;;;5011695;28;20175;-85
2023/01/31 05:46:28;;;;;;;7.40;2.80;;;2.00;99.90;;;;;;5011534;28;20246;-85
2023/01/31 05:48:54;;;;;;;5.97;2.83;;;1.90;99.90;;;;;;5013085;28;20196;-85
2023/01/31 05:51:19;;;;;;;6.10;2.43;;;1.90;99.90;;;;;;5010896;28;20223;-85
2023/01/31 05:53:47;;;;;;;6.80;2.37;;;1.90;99.90;;;;;;5011475;28;20175;-85
2023/01/31 05:56:13;;;;;;;7.50;2.40;;;1.90;99.90;;;;;;5012537;28;20188;-84
2023/01/31 05:58:39;;;;;;;10.03;2.70;;;1.90;99.90;;;;;;5011553;28;20238;-85
2023/01/31 06:01:04;;;;;;;5.77;2.67;;;1.90;99.90;;;;;;5010940;28;20175;-85
2023/01/31 06:03:30;;;;;;;6.50;2.87;;;1.90;99.90;;;;;;5011332;28;20611;-84
2023/01/31 06:05:55;;;;;;;5.90;2.90;;;1.80;99.90;;;;;;5012449;28;20194;-84
2023/01/31 06:08:21;;;;;;;9.33;2.83;;;1.80;99.90;;;;;;5011011;28;20222;-84
2023/01/31 06:10:47;;;;;;;9.37;3.10;;;1.70;99.90;;;;;;5010605;28;20171;-85
2023/01/31 06:13:12;;;;;;;9.77;3.03;;;1.70;99.90;;;;;;5012645;28;20172;-85
2023/01/31 06:15:42;;;;;;;7.73;2.50;;;1.70;99.90;;;;;;5011020;28;20198;-87
2023/01/31 06:18:07;;;;;;;10.30;3.40;;;1.70;99.90;;;;;;5011387;28;20178;-85
2023/01/31 06:20:33;;;;;;;6.93;2.83;;;2.00;99.90;;;;;;5010589;28;20217;-85
2023/01/31 06:23:00;;;;;;;6.23;2.90;;;2.10;99.90;;;;;;5012219;28;20184;-85
2023/01/31 06:25:26;;;;;;;7.43;2.77;;;2.30;99.90;;;;;;5010877;28;20247;-85
2023/01/31 06:27:51;;;;;;;6.90;2.50;;;2.30;99.90;;;;;;5010786;28;20210;-85
2023/01/31 06:30:17;;;;;;;4.97;2.53;;;2.10;99.90;;;;;;5010826;28;20541;-86
2023/01/31 06:32:42;;;;;;;14.43;3.30;;;2.00;99.90;;;;;;5011292;28;20717;-84
2023/01/31 06:35:08;;;;;;;7.47;3.13;;;1.80;99.90;;;;;;5011011;28;20200;-85
2023/01/31 06:37:34;;;;;;;10.37;3.30;;;1.70;99.90;;;;;;5012054;28;20172;-84
2023/01/31 06:39:59;;;;;;;14.03;4.53;;;1.70;99.90;;;;;;5011506;28;20172;-84
2023/01/31 06:42:25;;;;;;;13.67;3.43;;;1.60;99.90;;;;;;5012185;28;20229;-84
2023/01/31 06:44:50;;;;;;;9.97;4.17;;;1.60;99.90;;;;;;5010940;28;20548;-84
2023/01/31 06:47:16;;;;;;;10.10;3.43;;;1.70;99.90;;;;;;5010996;28;20206;-84
2023/01/31 06:49:41;;;;;;;12.07;3.90;;;1.60;99.90;;;;;;5010132;28;20261;-86
2023/01/31 06:52:07;;;;;;;10.80;3.73;;;1.60;99.90;;;;;;5013521;28;20182;-85
2023/01/31 06:54:33;;;;;;;12.17;4.03;;;1.60;99.90;;;;;;5014345;28;20172;-85
2023/01/31 06:56:58;;;;;;;10.83;4.00;;;1.60;99.90;;;;;;5014631;28;20198;-85
2023/01/31 06:59:24;;;;;;;7.67;3.53;;;1.60;99.90;;;;;;5014613;28;20175;-84
2023/01/31 07:01:49;;;;;;;9.90;3.93;;;1.60;99.90;;;;;;5013887;28;20179;-84
2023/01/31 07:04:15;;;;;;;11.40;4.07;;;1.60;99.90;;;;;;5014487;28;20270;-84
2023/01/31 07:06:40;;;;;;;17.07;4.10;;;1.60;99.90;;;;;;5014324;28;20203;-86
2023/01/31 07:09:06;;;;;;;6.63;3.57;;;1.60;99.90;;;;;;5014626;28;20203;-87
2023/01/31 07:11:32;;;;;;;8.40;3.40;;;1.60;99.90;;;;;;5013976;28;20182;-86
2023/01/31 07:13:58;;;;;;;15.40;4.20;;;1.60;99.90;;;;;;5015254;28;20206;-86
2023/01/31 07:16:24;;;;;;;9.13;3.57;;;1.60;99.90;;;;;;5014127;28;20206;-86
2023/01/31 07:18:53;;;;;;;12.60;3.63;;;1.70;99.90;;;;;;5015355;28;20183;-85
2023/01/31 07:21:20;;;;;;;10.77;3.10;;;1.70;99.90;;;;;;5013406;28;20190;-86
2023/01/31 07:23:45;;;;;;;9.07;3.70;;;1.70;99.90;;;;;;5013997;28;20210;-86
2023/01/31 07:26:11;;;;;;;9.67;3.60;;;1.80;99.90;;;;;;5014032;28;20238;-86
2023/01/31 07:28:37;;;;;;;9.90;3.77;;;1.80;99.90;;;;;;5015184;28;20211;-84
2023/01/31 07:31:04;;;;;;;12.97;4.00;;;1.80;99.90;;;;;;5014081;28;20175;-83
2023/01/31 07:33:30;;;;;;;10.50;3.63;;;1.70;99.90;;;;;;5013111;28;20274;-87
2023/01/31 07:35:56;;;;;;;9.50;3.97;;;1.70;99.90;;;;;;5012329;28;20202;-87
2023/01/31 07:38:21;;;;;;;10.17;3.83;;;1.80;99.90;;;;;;5012137;28;20171;-85
2023/01/31 07:40:47;;;;;;;7.23;3.53;;;1.80;99.90;;;;;;5013007;28;20244;-86
2023/01/31 07:43:13;;;;;;;7.20;3.27;;;1.80;99.90;;;;;;5014266;28;20241;-86
2023/01/31 07:45:41;;;;;;;13.10;3.80;;;1.80;99.90;;;;;;5011763;28;20246;-86
2023/01/31 07:48:07;;;;;;;9.73;3.77;;;1.80;99.90;;;;;;5013374;28;20234;-86
2023/01/31 07:50:32;;;;;;;16.53;5.90;;;1.80;99.90;;;;;;5013036;28;20207;-85
2023/01/31 07:52:58;;;;;;;10.23;3.87;;;1.80;99.90;;;;;;5014493;28;20542;-86
2023/01/31 07:55:24;;;;;;;9.23;3.90;;;1.80;99.90;;;;;;5014692;28;20195;-86
2023/01/31 07:57:50;;;;;;;9.77;3.90;;;1.80;99.90;;;;;;5013232;28;20185;-86
2023/01/31 08:05:47;;;;;;;12.87;4.20;;;1.90;99.90;;;;;;5014511;28;20209;-85
2023/01/31 08:08:13;;;;;;;11.90;3.60;;;1.90;99.90;;;;;;5013383;28;20210;-84
2023/01/31 08:10:39;;;;;;;14.30;4.47;;;2.00;99.90;;;;;;5012725;28;20190;-81
2023/01/31 08:13:05;;;;;;;11.77;4.27;;;2.00;99.90;;;;;;5013516;28;20190;-83
2023/01/31 08:15:31;;;;;;;8.13;3.40;;;2.00;99.90;;;;;;5014264;28;20460;-82
2023/01/31 08:17:57;;;;;;;11.10;3.90;;;2.00;99.90;;;;;;5012861;28;20186;-86
2023/01/31 08:20:22;;;;;;;7.80;3.53;;;2.10;99.90;;;;;;5012496;28;20178;-84
2023/01/31 08:22:48;;;;;;;12.03;3.83;;;2.10;99.90;;;;;;5013069;28;20271;-84
2023/01/31 08:25:14;;;;;;;11.40;3.50;;;2.10;99.90;;;;;;5014446;28;20262;-85
2023/01/31 08:27:39;;;;;;;10.13;3.50;;;2.10;99.90;;;;;;5012755;28;20233;-88
2023/01/31 08:30:06;;;;;;;6.97;4.20;;;2.10;99.90;;;;;;5012167;28;20175;-84
2023/01/31 08:32:32;;;;;;;10.27;3.40;;;2.20;99.90;;;;;;5014098;28;20175;-86
2023/01/31 08:34:57;;;;;;;6.97;3.27;;;2.20;99.90;;;;;;5012546;28;20210;-84
2023/01/31 08:37:23;;;;;;;13.60;3.83;;;2.20;99.90;;;;;;5012895;28;20270;-84
2023/01/31 08:39:48;;;;;;;10.23;3.63;;;2.10;99.90;;;;;;5012459;28;20187;-84
2023/01/31 08:42:14;;;;;;;8.60;3.30;;;2.00;99.90;;;;;;5012378;28;20180;-86
2023/01/31 08:44:39;;;;;;;10.57;3.63;;;2.00;99.90;;;;;;5012396;28;20238;-85
2023/01/31 08:47:05;;;;;;;10.03;3.20;;;2.00;99.90;;;;;;5069919;22;20232;-83
2023/01/31 08:49:32;;;;;;;9.70;3.23;;;2.00;99.90;;;;;;5042204;28;20214;-82
2023/01/31 08:51:58;;;;;;;13.13;3.87;;;2.10;99.90;;;;;;5062558;28;20174;-83
2023/01/31 08:54:23;;;;;;;8.53;3.90;;;2.10;99.90;;;;;;5067849;28;20177;-83
2023/01/31 08:56:49;;;;;;;9.47;4.17;;;2.10;99.90;;;;;;5054616;28;20197;-83
2023/01/31 08:59:14;;;;;;;11.00;3.70;;;2.10;99.90;;;;;;5036393;28;20693;-83
2023/01/31 09:01:41;;;;;;;10.60;3.80;;;2.10;99.90;;;;;;5035658;28;20171;-83
2023/01/31 09:04:08;;;;;;;11.80;4.00;;;2.10;99.90;;;;;;5036020;28;20570;-84
2023/01/31 09:06:33;;;;;;;8.60;3.87;;;2.10;99.90;;;;;;5053879;28;20267;-83
2023/01/31 09:08:59;;;;;;;7.53;3.53;;;2.20;99.90;;;;;;5036022;28;20581;-83
2023/01/31 09:11:30;;;;;;;9.20;3.80;;;2.20;99.90;;;;;;5036085;28;20174;-83
2023/01/31 09:14:30;;;;;;;11.60;4.40;;;2.10;99.90;;;;;;5035663;28;20178;-83
2023/01/31 09:17:06;;;;;;;16.30;4.70;;;2.10;99.90;;;;;;5035634;28;20201;-83
2023/01/31 09:19:35;;;;;;;11.60;4.23;;;2.10;99.90;;;;;;5054165;28;20663;-84
2023/01/31 09:24:47;;;;;;;7.93;3.90;;;2.20;99.90;;;;;;5053578;28;20558;-83
2023/01/31 09:27:16;;;;;;;9.83;4.10;;;2.20;99.90;;;;;;5035337;28;20276;-83
2023/01/31 09:29:42;;;;;;;8.50;3.70;;;2.10;99.90;;;;;;5053114;28;20644;-81
2023/01/31 09:32:07;;;;;;;10.13;4.00;;;2.10;99.90;;;;;;5035834;28;20197;-81
2023/01/31 09:34:33;;;;;;;9.50;4.20;;;2.10;99.90;;;;;;5035599;28;20550;-79
2023/01/31 09:36:58;;;;;;;8.97;3.70;;;2.10;99.90;;;;;;5052874;28;20203;-79
2023/01/31 09:39:24;;;;;;;11.30;3.87;;;2.10;99.90;;;;;;5052658;28;20593;-79
2023/01/31 09:41:54;;;;;;;11.00;4.10;;;2.40;99.90;;;;;;5052238;28;20179;-81
2023/01/31 09:44:30;;;;;;;8.20;3.60;;;2.50;99.90;;;;;;5034927;28;20241;-79
2023/01/31 09:47:01;;;;;;;11.13;4.07;;;2.40;99.90;;;;;;5052542;28;20216;-80
2023/01/31 09:49:31;;;;;;;10.77;4.40;;;2.30;99.90;;;;;;5052387;28;20284;-80
2023/01/31 09:52:00;;;;;;;12.50;4.00;;;2.30;99.90;;;;;;5034191;28;20177;-79
2023/01/31 09:54:38;;;;;;;12.53;3.80;;;2.30;99.90;;;;;;5052209;28;20173;-80
2023/01/31 09:57:28;;;;;;;10.80;4.10;;;2.30;99.90;;;;;;5053164;28;20265;-79
2023/01/31 10:00:02;;;;;;;10.97;4.43;;;2.30;99.90;;;;;;5053204;28;20178;-83
2023/01/31 10:02:27;;;;;;;10.80;4.20;;;2.30;99.90;;;;;;5035657;28;20219;-83
2023/01/31 10:05:20;;;;;;;9.97;4.50;;;2.30;99.90;;;;;;5036214;28;20174;-84
2023/01/31 10:08:10;;;;;;;11.37;4.23;;;2.20;99.90;;;;;;5035635;28;20193;-82
2023/01/31 10:10:51;;;;;;;10.03;4.23;;;2.20;99.90;;;;;;5035612;28;20173;-83
2023/01/31 10:13:30;;;;;;;10.00;4.00;;;2.20;99.90;;;;;;5054024;28;20165;-83
2023/01/31 10:16:04;;;;;;;12.30;3.67;;;2.20;99.90;;;;;;5036190;28;20198;-84
2023/01/31 10:18:33;;;;;;;9.97;4.43;;;2.30;99.90;;;;;;5053835;28;20165;-83
2023/01/31 10:21:21;;;;;;;7.03;3.43;;;2.30;99.90;;;;;;5053706;28;20260;-83
2023/01/31 10:23:54;;;;;;;9.17;3.80;;;2.40;99.90;;;;;;5053491;28;20640;-83
2023/01/31 10:26:25;;;;;;;11.57;4.10;;;2.40;99.90;;;;;;5036759;28;20702;-83
2023/01/31 10:29:00;;;;;;;7.63;3.50;;;2.40;99.90;;;;;;5057670;28;20229;-83
2023/01/31 10:31:37;;;;;;;8.97;3.50;;;2.50;99.90;;;;;;5057639;28;20174;-83
2023/01/31 10:34:12;;;;;;;8.43;3.70;;;2.50;99.90;;;;;;5057858;28;20177;-83
2023/01/31 10:36:56;;;;;;;10.87;3.90;;;2.50;99.90;;;;;;5039671;28;20188;-83
2023/01/31 10:39:25;;;;;;;12.07;3.57;;;2.50;99.90;;;;;;5058232;28;20215;-82
2023/01/31 10:41:53;;;;;;;12.17;4.10;;;2.40;99.90;;;;;;5039840;28;20540;-83
2023/01/31 10:44:52;;;;;;;10.87;4.47;;;2.40;99.90;;;;;;5040782;28;20202;-82
2023/01/31 10:47:23;;;;;;;8.37;4.23;;;2.40;99.90;;;;;;5040095;28;20209;-83
2023/01/31 10:49:50;;;;;;;12.17;4.57;;;2.40;99.90;;;;;;5040348;28;20251;-84
2023/01/31 10:52:27;;;;;;;10.97;4.47;;;2.40;99.90;;;;;;5041405;28;20167;-84
2023/01/31 10:54:58;;;;;;;11.07;4.87;;;2.40;99.90;;;;;;5041170;28;20174;-83
2023/01/31 10:57:24;;;;;;;12.50;5.00;;;2.50;99.90;;;;;;5059647;28;20194;-83
2023/01/31 10:59:51;;;;;;;9.67;4.57;;;2.50;99.90;;;;;;5041411;28;20273;-84
2023/01/31 11:02:23;;;;;;;15.73;5.37;;;2.50;99.90;;;;;;5060228;28;20177;-84
2023/01/31 11:04:52;;;;;;;13.90;5.97;;;2.50;99.90;;;;;;5060489;28;20182;-84
2023/01/31 11:07:19;;;;;;;13.17;5.30;;;2.40;99.90;;;;;;5042657;28;20572;-83
2023/01/31 11:09:53;;;;;;;14.83;6.20;;;2.30;99.90;;;;;;5041525;28;20209;-84
2023/01/31 11:12:20;;;;;;;11.73;6.13;;;2.30;99.90;;;;;;5042103;28;20166;-83
2023/01/31 11:15:06;;;;;;;15.27;6.87;;;2.30;99.90;;;;;;5060621;28;20541;-83
2023/01/31 11:17:35;;;;;;;12.47;6.73;;;2.30;99.90;;;;;;5044480;28;20404;-84
2023/01/31 11:20:05;;;;;;;12.10;6.70;;;2.20;99.90;;;;;;5058284;28;20170;-82
2023/01/31 11:22:33;;;;;;;9.40;4.77;;;2.40;99.90;;;;;;5060192;28;20219;-82
2023/01/31 11:25:03;;;;;;;12.93;6.10;;;2.70;99.90;;;;;;5041282;28;20194;-79
2023/01/31 11:27:39;;;;;;;11.23;5.73;;;2.80;99.90;;;;;;5058385;28;20200;-81
2023/01/31 11:30:17;;;;;;;14.87;6.57;;;2.70;99.90;;;;;;5040907;28;20187;-82
2023/01/31 11:32:43;;;;;;;15.40;6.23;;;2.50;99.90;;;;;;5042348;28;20166;-82
2023/01/31 11:35:12;;;;;;;14.23;6.23;;;2.40;99.90;;;;;;5041766;28;20167;-83
2023/01/31 11:37:52;;;;;;;10.13;6.17;;;2.40;99.90;;;;;;5039386;28;20189;-82
2023/01/31 11:40:38;;;;;;;17.50;6.83;;;2.30;99.90;;;;;;5054638;28;20648;-82
2023/01/31 11:43:12;;;;;;;19.53;6.63;;;2.30;99.90;;;;;;5055241;28;20645;-82
2023/01/31 11:45:43;;;;;;;15.07;7.10;;;2.30;99.90;;;;;;5037041;28;20169;-81
2023/01/31 11:48:18;;;;;;;13.87;7.97;;;2.30;99.90;;;;;;5054836;28;20199;-83
2023/01/31 11:50:50;;;;;;;14.70;7.17;;;2.30;99.90;;;;;;5054642;28;20641;-81
2023/01/31 11:53:27;;;;;;;14.17;7.30;;;2.30;99.90;;;;;;5037154;28;20181;-83
2023/01/31 11:55:58;;;;;;;13.50;6.77;;;2.30;99.90;;;;;;5055306;28;20239;-82
2023/01/31 11:58:34;;;;;;;13.27;6.70;;;2.30;99.90;;;;;;5037238;28;20633;-82
2023/01/31 12:01:01;;;;;;;17.20;6.67;;;2.30;99.90;;;;;;5036708;28;20173;-81
2023/01/31 12:03:27;;;;;;;14.13;7.13;;;2.30;99.90;;;;;;5036926;28;20536;-82
2023/01/31 12:06:08;;;;;;;17.60;7.23;;;2.30;99.90;;;;;;5054804;28;20186;-79
2023/01/31 12:08:42;;;;;;;13.93;6.40;;;2.30;99.90;;;;;;5036275;28;20205;-77
2023/01/31 12:11:08;;;;;;;12.90;6.37;;;2.50;99.90;;;;;;5035748;28;20170;-78
2023/01/31 12:14:01;;;;;;;10.57;6.13;;;2.50;99.90;;;;;;5054462;28;20249;-81
2023/01/31 12:16:29;;;;;;;15.43;7.43;;;2.60;99.90;;;;;;5054388;28;20604;-82
2023/01/31 12:19:17;;;;;;;12.23;5.80;;;2.60;99.90;;;;;;5054648;28;20198;-81
2023/01/31 12:22:05;;;;;;;16.83;6.60;;;2.50;99.90;;;;;;5036345;28;20177;-81
2023/01/31 12:25:08;;;;;;;12.73;6.40;;;2.40;99.90;;;;;;5036623;28;20213;-81
2023/01/31 12:28:06;;;;;;;13.07;6.10;;;2.30;99.90;;;;;;5054434;28;20268;-82
2023/01/31 12:30:34;;;;;;;12.57;7.07;;;2.40;99.90;;;;;;5054116;28;20220;-84
2023/01/31 12:33:00;;;;;;;13.37;7.03;;;2.40;99.90;;;;;;5037799;28;20170;-83
2023/01/31 12:35:38;;;;;;;15.00;6.57;;;2.40;99.90;;;;;;5036434;28;20185;-85
2023/01/31 12:38:27;;;;;;;16.60;7.03;;;2.40;99.90;;;;;;5054233;28;20174;-84
2023/01/31 12:41:16;;;;;;;16.97;7.13;;;2.40;99.90;;;;;;5036034;28;20181;-81
2023/01/31 12:44:01;;;;;;;14.10;6.20;;;2.40;99.90;;;;;;5027106;28;20180;-83
2023/01/31 12:47:17;;;;;;;14.13;6.40;;;2.40;99.90;;;;;;5036798;28;20217;-82
2023/01/31 12:49:42;;;;;;;15.37;6.70;;;2.40;99.90;;;;;;5010526;28;20217;-83
2023/01/31 12:52:35;;;;;;;14.07;6.20;;;2.40;99.90;;;;;;5054712;28;20231;-81
2023/01/31 12:55:33;;;;;;;15.80;6.77;;;2.40;99.90;;;;;;5036133;28;20209;-79
2023/01/31 12:58:38;;;;;;;13.33;6.53;;;2.50;99.90;;;;;;5052366;28;20186;-79
2023/01/31 13:01:10;;;;;;;14.97;6.73;;;2.50;99.90;;;;;;4951623;28;20176;-81
2023/01/31 13:03:43;;;;;;;14.77;6.63;;;2.50;99.90;;;;;;4973233;28;20179;-81
2023/01/31 13:06:43;;;;;;;11.10;6.10;;;2.50;99.90;;;;;;5018634;28;20211;-82
2023/01/31 13:09:25;;;;;;;14.70;6.83;;;2.50;99.90;;;;;;5036838;28;20584;-82
2023/01/31 13:12:00;;;;;;;20.70;7.07;;;2.40;99.90;;;;;;5044084;28;20210;-81
2023/01/31 13:14:30;;;;;;;15.47;6.87;;;2.40;99.90;;;;;;5044589;28;20173;-81
2023/01/31 13:16:59;;;;;;;15.23;7.70;;;2.40;99.90;;;;;;5036493;28;20193;-82
2023/01/31 13:19:48;;;;;;;18.60;7.10;;;2.40;99.90;;;;;;5036109;28;20228;-82
2023/01/31 13:22:25;;;;;;;14.60;6.73;;;2.40;99.90;;;;;;5036320;28;20174;-82
2023/01/31 13:25:02;;;;;;;10.63;6.13;;;2.40;99.90;;;;;;5053836;28;20200;-82
2023/01/31 13:27:33;;;;;;;11.37;6.20;;;2.50;99.90;;;;;;5036005;28;20212;-82
2023/01/31 13:30:04;;;;;;;14.83;6.60;;;2.50;99.90;;;;;;5053483;28;20342;-82